createdAt,value
2022-11-24T00:00:51.004Z,100622.28
2022-11-24T00:03:17.652Z,100619.56
2022-11-24T00:05:44.422Z,100616.00
2022-11-24T00:08:10.936Z,100620.59
2022-11-24T00:10:37.367Z,100620.59
2022-11-24T00:13:03.852Z,100619.91
2022-11-24T00:15:30.260Z,100613.63
2022-11-24T00:17:56.679Z,100618.22
2022-11-24T00:20:23.071Z,100617.56
2022-11-24T00:22:49.491Z,100620.28
2022-11-24T00:25:15.891Z,100610.44
2022-11-24T00:27:42.324Z,100613.34
2022-11-24T00:30:09.916Z,100609.78
2022-11-24T00:32:36.318Z,100608.94
2022-11-24T00:35:02.727Z,100608.25
2022-11-24T00:37:29.176Z,100603.00
2022-11-24T00:39:55.717Z,100616.38
2022-11-24T00:42:22.126Z,100621.16
2022-11-24T00:44:48.573Z,100630.13
2022-11-24T00:47:15.133Z,100616.38
2022-11-24T00:49:41.555Z,100629.09
2022-11-24T00:52:07.981Z,100627.44
2022-11-24T00:54:34.651Z,100630.31
2022-11-24T00:57:01.395Z,100625.06
2022-11-24T00:59:27.869Z,100628.78
2022-11-24T01:01:54.354Z,100629.63
2022-11-24T01:04:20.962Z,100627.09
2022-11-24T01:06:47.429Z,100624.41
2022-11-24T01:09:13.877Z,100625.41
2022-11-24T01:11:59.070Z,100624.56
2022-11-24T01:14:25.633Z,100618.47
2022-11-24T01:16:52.126Z,100615.94
2022-11-24T01:19:18.588Z,100621.53
2022-11-24T01:21:45.010Z,100619.00
2022-11-24T01:24:11.974Z,100618.16
2022-11-24T01:26:38.502Z,100622.72
2022-11-24T01:29:05.073Z,100622.56
2022-11-24T01:31:32.851Z,100626.28
2022-11-24T01:33:59.261Z,100622.56
2022-11-24T01:36:25.765Z,100626.94
2022-11-24T01:38:52.257Z,100617.97
2022-11-24T01:41:23.182Z,100620.69
2022-11-24T01:43:50.172Z,100619.00
2022-11-24T01:46:16.676Z,100621.72
2022-11-24T01:48:45.616Z,100618.16
2022-11-24T01:51:17.374Z,100611.88
2022-11-24T01:53:45.742Z,100614.59
2022-11-24T01:56:13.077Z,100614.75
2022-11-24T01:58:40.298Z,100624.75
2022-11-24T02:01:06.868Z,100623.06
2022-11-24T02:03:34.641Z,100628.50
2022-11-24T02:06:03.473Z,100624.25
2022-11-24T02:08:29.875Z,100626.81
2022-11-24T02:10:56.734Z,100625.09
2022-11-24T02:13:23.565Z,100633.41
2022-11-24T02:15:50.072Z,100636.97
2022-11-24T02:18:16.489Z,100635.28
2022-11-24T02:20:42.949Z,100631.38
2022-11-24T02:23:20.650Z,100635.78
2022-11-24T02:25:47.021Z,100633.09
2022-11-24T02:28:15.752Z,100633.91
2022-11-24T02:30:42.400Z,100645.94
2022-11-24T02:33:10.271Z,100645.94
2022-11-24T02:35:36.851Z,100653.44
2022-11-24T02:38:03.304Z,100653.59
2022-11-24T02:40:30.973Z,100658.84
2022-11-24T02:43:04.851Z,100655.13
2022-11-24T02:45:31.949Z,100659.50
2022-11-24T02:47:58.468Z,100659.50
2022-11-24T02:50:25.034Z,100653.94
2022-11-24T02:52:51.533Z,100650.53
2022-11-24T02:55:18.047Z,100652.41
2022-11-24T02:57:44.513Z,100651.38
2022-11-24T03:00:11.693Z,100651.56
2022-11-24T03:02:38.204Z,100649.00
2022-11-24T03:05:04.902Z,100642.06
2022-11-24T03:07:31.356Z,100656.66
2022-11-24T03:09:57.825Z,100675.66
2022-11-24T03:12:24.261Z,100683.78
2022-11-24T03:14:50.742Z,100677.66
2022-11-24T03:17:17.193Z,100665.66
2022-11-24T03:19:43.689Z,100670.22
2022-11-24T03:22:11.907Z,100682.75
2022-11-24T03:24:38.475Z,100670.03
2022-11-24T03:27:04.923Z,100671.72
2022-11-24T03:29:31.391Z,100663.44
2022-11-24T03:31:58.713Z,100660.72
2022-11-24T03:34:25.136Z,100671.38
2022-11-24T03:36:51.565Z,100665.78
2022-11-24T03:39:17.989Z,100664.94
2022-11-24T03:41:44.457Z,100670.38
2022-11-24T03:44:10.866Z,100671.22
2022-11-24T03:46:37.430Z,100681.91
2022-11-24T03:49:03.897Z,100673.91
2022-11-24T03:51:30.310Z,100673.78
2022-11-24T03:53:56.769Z,100670.22
2022-11-24T03:56:23.189Z,100672.75
2022-11-24T03:58:50.054Z,100678.16
2022-11-24T04:01:16.578Z,100666.47
2022-11-24T04:03:43.138Z,100665.63
2022-11-24T04:06:09.823Z,100667.50
2022-11-24T04:08:36.230Z,100670.38
2022-11-24T04:11:02.778Z,100678.69
2022-11-24T04:13:29.187Z,100679.72
2022-11-24T04:15:55.688Z,100680.72
2022-11-24T04:18:22.365Z,100674.44
2022-11-24T04:20:50.117Z,100674.44
2022-11-24T04:23:16.777Z,100673.59
2022-11-24T04:25:43.771Z,100682.56
2022-11-24T04:28:10.345Z,100694.44
2022-11-24T04:30:38.553Z,100702.59
2022-11-24T04:33:04.994Z,100698.00
2022-11-24T04:35:31.429Z,100712.41
2022-11-24T04:38:01.694Z,100715.13
2022-11-24T04:40:28.170Z,100715.81
2022-11-24T04:42:55.433Z,100707.69
2022-11-24T04:45:22.515Z,100722.09
2022-11-24T04:47:49.047Z,100722.94
2022-11-24T04:50:15.755Z,100715.81
2022-11-24T04:52:43.292Z,100717.31
2022-11-24T04:55:09.807Z,100717.31
2022-11-24T04:57:36.322Z,100729.00
2022-11-24T05:00:04.077Z,100728.16
2022-11-24T05:02:30.537Z,100735.31
2022-11-24T05:04:56.964Z,100736.31
2022-11-24T05:07:23.439Z,100737.00
2022-11-24T05:10:08.735Z,100740.38
2022-11-24T05:12:35.190Z,100744.97
2022-11-24T05:15:02.366Z,100753.09
2022-11-24T05:17:29.761Z,100758.38
2022-11-24T05:19:56.258Z,100752.06
2022-11-24T05:22:22.789Z,100751.06
2022-11-24T05:24:49.253Z,100744.97
2022-11-24T05:27:15.765Z,100748.50
2022-11-24T05:29:42.222Z,100746.66
2022-11-24T05:32:08.774Z,100754.78
2022-11-24T05:34:35.515Z,100754.97
2022-11-24T05:37:05.189Z,100754.78
2022-11-24T05:39:35.402Z,100763.94
2022-11-24T05:42:22.403Z,100763.63
2022-11-24T05:44:49.184Z,100768.00
2022-11-24T05:47:15.642Z,100760.72
2022-11-24T05:49:42.195Z,100761.56
2022-11-24T05:52:08.729Z,100763.44
2022-11-24T05:54:35.338Z,100764.28
2022-11-24T05:57:02.107Z,100768.84
2022-11-24T05:59:28.557Z,100759.22
2022-11-24T06:01:55.130Z,100778.19
2022-11-24T06:04:21.665Z,100781.91
2022-11-24T06:06:48.108Z,100768.53
2022-11-24T06:09:14.652Z,100794.63
2022-11-24T06:11:41.063Z,100793.44
2022-11-24T06:14:11.083Z,100801.59
2022-11-24T06:16:38.121Z,100809.56
2022-11-24T06:19:04.714Z,100804.97
2022-11-24T06:21:31.832Z,100813.09
2022-11-24T06:23:58.428Z,100814.84
2022-11-24T06:26:24.851Z,100810.25
2022-11-24T06:28:51.257Z,100819.91
2022-11-24T06:31:17.859Z,100817.19
2022-11-24T06:33:44.526Z,100818.91
2022-11-24T06:36:13.248Z,100818.72
2022-11-24T06:38:39.721Z,100817.69
2022-11-24T06:41:07.428Z,100817.53
2022-11-24T06:43:34.612Z,100826.53
2022-11-24T06:46:01.618Z,100821.75
2022-11-24T06:48:28.340Z,100827.19
2022-11-24T06:50:58.617Z,100828.03
2022-11-24T06:53:25.058Z,100844.16
2022-11-24T06:55:51.991Z,100843.13
2022-11-24T06:58:18.420Z,100842.97
2022-11-24T07:00:44.951Z,100840.44
2022-11-24T07:03:14.216Z,100842.13
2022-11-24T07:05:40.737Z,100849.22
2022-11-24T07:08:07.156Z,100843.97
2022-11-24T07:10:33.694Z,100846.69
2022-11-24T07:13:00.187Z,100843.13
2022-11-24T07:15:28.578Z,100854.84
2022-11-24T07:17:54.946Z,100857.38
2022-11-24T07:20:21.337Z,100854.66
2022-11-24T07:22:47.829Z,100858.25
2022-11-24T07:25:14.637Z,100870.94
2022-11-24T07:27:41.142Z,100860.09
2022-11-24T07:30:08.446Z,100869.25
2022-11-24T07:32:34.915Z,100872.81
2022-11-24T07:35:01.300Z,100875.69
2022-11-24T07:37:31.324Z,100874.00
2022-11-24T07:39:58.432Z,100875.19
2022-11-24T07:42:24.907Z,100875.69
2022-11-24T07:44:51.311Z,100877.06
2022-11-24T07:47:17.749Z,100873.00
2022-11-24T07:49:44.174Z,100874.00
2022-11-24T07:52:10.581Z,100879.59
2022-11-24T07:54:37.240Z,100885.69
2022-11-24T07:57:03.755Z,100886.56
2022-11-24T07:59:30.249Z,100896.38
2022-11-24T08:01:56.709Z,100892.84
2022-11-24T08:04:23.257Z,100886.22
2022-11-24T08:06:49.804Z,100894.16
2022-11-24T08:09:16.258Z,100891.41
2022-11-24T08:11:42.743Z,100889.53
2022-11-24T08:14:09.206Z,100894.47
2022-11-24T08:16:35.756Z,100884.34
2022-11-24T08:19:02.301Z,100885.19
2022-11-24T08:21:28.925Z,100889.44
2022-11-24T08:23:56.476Z,100885.88
2022-11-24T08:26:24.780Z,100895.88
2022-11-24T08:28:54.333Z,100902.50
2022-11-24T08:31:21.023Z,100900.97
2022-11-24T08:33:47.825Z,100890.44
2022-11-24T08:36:16.059Z,100898.09
2022-11-24T08:38:42.971Z,100891.50
2022-11-24T08:41:10.920Z,100897.28
2022-11-24T08:43:37.659Z,100899.66
2022-11-24T08:46:06.367Z,100897.59
2022-11-24T08:48:33.092Z,100904.56
2022-11-24T08:51:05.613Z,100899.66
2022-11-24T08:53:32.039Z,100904.91
2022-11-24T08:56:02.018Z,100908.31
2022-11-24T08:58:29.321Z,100910.00
2022-11-24T09:00:56.639Z,100902.50
2022-11-24T09:03:23.090Z,100904.88
2022-11-24T09:05:52.050Z,100905.72
2022-11-24T09:08:19.190Z,100909.28
2022-11-24T09:10:45.757Z,100918.13
2022-11-24T09:13:12.383Z,100916.25
2022-11-24T09:15:38.894Z,100921.50
2022-11-24T09:18:05.498Z,100924.06
2022-11-24T09:20:31.926Z,100923.88
2022-11-24T09:22:58.459Z,100927.44
2022-11-24T09:25:24.999Z,100934.56
2022-11-24T09:27:51.759Z,100929.13
2022-11-24T09:30:18.456Z,100935.25
2022-11-24T09:32:44.965Z,100943.41
2022-11-24T09:35:11.482Z,100940.34
2022-11-24T09:37:38.119Z,100940.34
2022-11-24T09:40:04.943Z,100935.94
2022-11-24T09:42:53.605Z,100940.19
2022-11-24T09:45:49.345Z,100941.03
2022-11-24T09:48:22.622Z,100939.16
2022-11-24T09:50:49.662Z,100940.88
2022-11-24T09:53:19.093Z,100936.28
2022-11-24T09:56:04.848Z,100933.38
2022-11-24T09:58:35.611Z,100940.69
2022-11-24T10:01:05.068Z,100934.03
2022-11-24T10:03:33.146Z,100932.34
2022-11-24T10:06:01.534Z,100935.75
2022-11-24T10:08:28.007Z,100935.91
2022-11-24T10:10:59.703Z,100944.91
2022-11-24T10:13:46.715Z,100944.75
2022-11-24T10:16:19.074Z,100942.03
2022-11-24T10:18:53.366Z,100940.16
2022-11-24T10:21:19.844Z,100945.59
2022-11-24T10:23:49.273Z,100962.75
2022-11-24T10:26:20.112Z,100969.03
2022-11-24T10:28:51.733Z,100962.56
2022-11-24T10:31:29.355Z,100964.44
2022-11-24T10:33:58.136Z,100962.41
2022-11-24T10:36:47.072Z,100964.44
2022-11-24T10:39:32.412Z,100986.03
2022-11-24T10:42:19.646Z,100973.44
2022-11-24T10:44:46.247Z,100976.00
2022-11-24T10:47:23.045Z,100976.84
2022-11-24T10:49:57.874Z,100971.41
2022-11-24T10:52:24.870Z,100978.72
2022-11-24T10:54:59.058Z,100974.97
2022-11-24T10:57:33.296Z,100969.53
2022-11-24T11:00:00.520Z,100967.66
2022-11-24T11:02:27.261Z,100964.09
2022-11-24T11:04:53.828Z,100961.19
2022-11-24T11:07:22.187Z,100947.59
2022-11-24T11:09:49.039Z,100961.03
2022-11-24T11:15:30.227Z,100955.59
2022-11-24T11:18:01.081Z,100951.88
2022-11-24T11:20:32.302Z,100961.88
2022-11-24T11:23:00.406Z,100963.56
2022-11-24T11:25:32.713Z,100958.16
2022-11-24T11:28:19.563Z,100962.56
2022-11-24T11:34:05.454Z,100966.13
2022-11-24T11:36:33.696Z,100967.13
2022-11-24T11:39:00.682Z,100963.44
2022-11-24T11:41:32.409Z,100963.25
2022-11-24T11:44:07.241Z,100967.84
2022-11-24T11:46:33.808Z,100976.81
2022-11-24T11:49:00.624Z,100970.38
2022-11-24T11:51:27.117Z,100961.19
2022-11-24T11:53:56.686Z,100967.66
2022-11-24T11:56:23.148Z,100978.38
2022-11-24T11:58:55.967Z,100982.94
2022-11-24T12:01:37.657Z,100980.22
2022-11-24T12:04:12.908Z,100983.81
2022-11-24T12:06:54.737Z,100990.09
2022-11-24T12:09:24.324Z,100981.09
2022-11-24T12:12:09.522Z,100977.50
2022-11-24T12:14:39.517Z,100971.91
2022-11-24T12:17:11.881Z,100980.06
2022-11-24T12:19:45.704Z,100973.59
2022-11-24T12:22:15.253Z,100981.56
2022-11-24T12:24:44.933Z,100979.88
2022-11-24T12:27:31.709Z,100987.00
2022-11-24T12:29:58.226Z,100983.44
2022-11-24T12:32:43.414Z,100978.84
2022-11-24T12:35:22.514Z,100972.56
2022-11-24T12:37:55.139Z,100975.28
2022-11-24T12:40:27.685Z,100979.69
2022-11-24T12:43:06.619Z,100980.56
2022-11-24T12:45:33.112Z,100986.00
2022-11-24T12:48:20.811Z,100981.56
2022-11-24T12:50:48.294Z,100992.28
2022-11-24T12:53:14.817Z,100995.00
2022-11-24T12:55:42.649Z,100989.56
2022-11-24T12:58:27.606Z,100987.69
2022-11-24T13:01:18.648Z,100987.00
2022-11-24T13:03:58.782Z,100989.56
2022-11-24T13:06:54.702Z,100990.41
2022-11-24T13:09:22.378Z,100997.72
2022-11-24T13:11:53.180Z,101002.13
2022-11-24T13:14:30.525Z,101007.56
2022-11-24T13:19:48.554Z,101006.72
2022-11-24T13:22:17.331Z,101011.97
2022-11-24T13:24:45.158Z,101014.69
2022-11-24T13:27:27.114Z,101015.72
2022-11-24T13:29:53.749Z,101018.44
2022-11-24T13:32:23.076Z,101023.03
2022-11-24T13:34:54.771Z,101023.03
2022-11-24T13:37:34.337Z,101026.59
2022-11-24T13:40:25.027Z,101026.59
2022-11-24T13:42:54.543Z,101033.91
2022-11-24T13:45:39.582Z,101034.75
2022-11-24T13:48:22.615Z,101034.75
2022-11-24T13:50:56.162Z,101025.75
2022-11-24T13:53:32.041Z,101019.47
2022-11-24T13:55:59.929Z,101021.16
2022-11-24T13:58:29.778Z,101026.59
2022-11-24T14:00:58.432Z,101042.91
2022-11-24T14:03:34.378Z,101040.16
2022-11-24T14:06:01.733Z,101044.75
2022-11-24T14:08:36.442Z,101043.72
2022-11-24T14:11:03.495Z,101043.72
2022-11-24T14:13:31.762Z,101048.31
2022-11-24T14:16:01.297Z,101060.88
2022-11-24T14:18:31.715Z,101051.03
2022-11-24T14:20:58.788Z,101061.91
2022-11-24T14:23:25.313Z,101059.19
2022-11-24T14:25:52.556Z,101061.06
2022-11-24T14:28:26.558Z,101065.47
2022-11-24T14:31:09.637Z,101076.34
2022-11-24T14:33:38.285Z,101070.91
2022-11-24T14:36:04.923Z,101075.50
2022-11-24T14:38:31.457Z,101073.63
2022-11-24T14:41:13.359Z,101072.78
2022-11-24T14:43:39.813Z,101086.19
2022-11-24T14:46:09.783Z,101087.22
2022-11-24T14:48:37.417Z,101096.22
2022-11-24T14:51:15.273Z,101089.94
2022-11-24T14:53:45.431Z,101094.53
2022-11-24T14:56:32.881Z,101103.53
2022-11-24T14:58:59.490Z,101097.25
2022-11-24T15:01:29.191Z,101099.97
2022-11-24T15:04:13.067Z,101118.16
2022-11-24T15:07:01.599Z,101118.16
2022-11-24T15:09:43.031Z,101119.19
2022-11-24T15:12:18.424Z,101120.88
2022-11-24T15:15:14.417Z,101130.72
2022-11-24T15:17:51.815Z,101133.44
2022-11-24T15:20:24.202Z,101139.91
2022-11-24T15:22:52.477Z,101129.88
2022-11-24T15:25:26.283Z,101134.28
2022-11-24T15:27:53.222Z,101132.59
2022-11-24T15:30:19.806Z,101139.06
2022-11-24T15:32:50.156Z,101146.19
2022-11-24T15:35:16.649Z,101139.06
2022-11-24T15:37:43.059Z,101147.03
2022-11-24T15:40:10.734Z,101153.50
2022-11-24T15:42:37.177Z,101154.50
2022-11-24T15:45:03.761Z,101158.94
2022-11-24T15:47:30.203Z,101157.06
2022-11-24T15:49:56.701Z,101168.78
2022-11-24T15:52:23.183Z,101167.94
2022-11-24T15:54:52.819Z,101174.22
2022-11-24T15:57:21.708Z,101168.78
2022-11-24T15:59:48.117Z,101169.78
2022-11-24T16:02:14.658Z,101158.75
2022-11-24T16:04:41.714Z,101156.22
2022-11-24T16:07:14.258Z,101157.06
2022-11-24T16:09:41.108Z,101165.22
2022-11-24T16:12:10.751Z,101153.50
2022-11-24T16:14:37.642Z,101158.06
2022-11-24T16:17:04.449Z,101162.50
2022-11-24T16:19:30.923Z,101157.06
2022-11-24T16:21:57.422Z,101156.22
2022-11-24T16:24:23.939Z,101162.50
2022-11-24T16:26:50.378Z,101158.75
2022-11-24T16:29:16.913Z,101162.50
2022-11-24T16:31:44.499Z,101161.66
2022-11-24T16:34:11.057Z,101159.78
2022-11-24T16:36:37.546Z,101164.19
2022-11-24T16:39:04.047Z,101169.63
2022-11-24T16:41:30.570Z,101163.34
2022-11-24T16:43:59.546Z,101158.75
2022-11-24T16:46:26.030Z,101159.59
2022-11-24T16:48:53.717Z,101163.66
2022-11-24T16:51:21.869Z,101158.06
2022-11-24T16:53:48.933Z,101163.31
2022-11-24T16:56:17.481Z,101168.09
2022-11-24T16:58:44.022Z,101170.63
2022-11-24T17:01:11.674Z,101169.44
2022-11-24T17:03:38.397Z,101174.69
2022-11-24T17:06:05.891Z,101179.81
2022-11-24T17:08:33.042Z,101174.19
2022-11-24T17:11:08.347Z,101180.66
2022-11-24T17:13:34.809Z,101192.19
2022-11-24T17:16:08.284Z,101190.00
2022-11-24T17:18:35.385Z,101192.41
2022-11-24T17:21:07.630Z,101184.25
2022-11-24T17:23:35.804Z,101191.09
2022-11-24T17:26:03.242Z,101185.31
2022-11-24T17:28:29.981Z,101204.16
2022-11-24T17:30:56.914Z,101191.94
2022-11-24T17:33:23.498Z,101197.03
2022-11-24T17:35:49.949Z,101202.28
2022-11-24T17:38:16.470Z,101200.41
2022-11-24T17:40:48.869Z,101207.41
2022-11-24T17:43:15.408Z,101209.28
2022-11-24T17:45:41.933Z,101211.81
2022-11-24T17:48:08.464Z,101220.81
2022-11-24T17:50:34.965Z,101214.53
2022-11-24T17:53:01.492Z,101220.81
2022-11-24T17:55:27.921Z,101219.78
2022-11-24T17:57:55.585Z,101219.78
2022-11-24T18:00:22.313Z,101220.66
2022-11-24T18:02:48.769Z,101219.66
2022-11-24T18:05:15.195Z,101228.66
2022-11-24T18:07:41.820Z,101226.09
2022-11-24T18:10:08.663Z,101227.81
2022-11-24T18:12:35.189Z,101231.38
2022-11-24T18:15:01.592Z,101229.50
2022-11-24T18:17:29.352Z,101228.66
2022-11-24T18:19:56.044Z,101236.63
2022-11-24T18:22:43.034Z,101227.81
2022-11-24T18:25:09.573Z,101229.50
2022-11-24T18:27:35.986Z,101230.19
2022-11-24T18:30:02.526Z,101240.19
2022-11-24T18:32:28.965Z,101245.63
2022-11-24T18:34:55.498Z,101244.78
2022-11-24T18:37:21.946Z,101239.34
2022-11-24T18:39:48.410Z,101247.50
2022-11-24T18:42:15.253Z,101239.34
2022-11-24T18:44:42.442Z,101242.06
2022-11-24T18:47:09.021Z,101240.19
2022-11-24T18:49:35.465Z,101242.06
2022-11-24T18:52:01.958Z,101243.78
2022-11-24T18:54:28.469Z,101246.50
2022-11-24T18:56:58.900Z,101248.19
2022-11-24T18:59:28.359Z,101242.91
2022-11-24T19:01:56.033Z,101236.63
2022-11-24T19:04:24.009Z,101240.19
2022-11-24T19:06:50.471Z,101245.47
2022-11-24T19:09:18.679Z,101241.91
2022-11-24T19:11:46.278Z,101240.03
2022-11-24T19:14:13.949Z,101250.06
2022-11-24T19:16:40.893Z,101252.78
2022-11-24T19:19:08.075Z,101258.22
2022-11-24T19:21:37.249Z,101266.41
2022-11-24T19:24:05.697Z,101263.69
2022-11-24T19:26:32.808Z,101268.25
2022-11-24T19:28:59.354Z,101267.25
2022-11-24T19:31:25.826Z,101269.13
2022-11-24T19:33:54.559Z,101281.88
2022-11-24T19:36:22.566Z,101277.28
2022-11-24T19:38:53.234Z,101281.88
2022-11-24T19:41:20.893Z,101280.00
2022-11-24T19:43:48.238Z,101280.00
2022-11-24T19:46:16.263Z,101287.13
2022-11-24T19:48:44.067Z,101289.84
2022-11-24T19:51:12.161Z,101291.72
2022-11-24T19:53:38.674Z,101293.59
2022-11-24T19:56:09.505Z,101294.44
2022-11-24T19:58:36.595Z,101297.16
2022-11-24T20:01:07.030Z,101299.88
2022-11-24T20:03:33.834Z,101293.59
2022-11-24T20:06:00.289Z,101289.00
2022-11-24T20:08:30.633Z,101280.00
2022-11-24T20:11:16.504Z,101285.44
2022-11-24T20:13:44.483Z,101289.16
2022-11-24T20:16:12.732Z,101291.88
2022-11-24T20:18:42.432Z,101287.31
2022-11-24T20:21:10.085Z,101284.41
2022-11-24T20:23:36.501Z,101276.75
2022-11-24T20:26:05.707Z,101293.59
2022-11-24T20:28:32.405Z,101291.03
2022-11-24T20:31:05.924Z,101293.59
2022-11-24T20:33:32.455Z,101299.03
2022-11-24T20:36:05.609Z,101301.75
2022-11-24T20:38:32.307Z,101305.31
2022-11-24T20:41:08.981Z,101305.31
2022-11-24T20:43:36.304Z,101309.06
2022-11-24T20:46:04.093Z,101311.78
2022-11-24T20:48:30.926Z,101310.06
2022-11-24T20:51:02.368Z,101313.47
2022-11-24T20:53:28.797Z,101321.63
2022-11-24T20:56:06.350Z,101316.19
2022-11-24T20:58:33.794Z,101311.59
2022-11-24T21:01:07.315Z,101321.63
2022-11-24T21:03:39.676Z,101319.75
2022-11-24T21:06:09.443Z,101328.78
2022-11-24T21:08:36.769Z,101322.47
2022-11-24T21:11:03.851Z,101326.06
2022-11-24T21:13:32.590Z,101328.78
2022-11-24T21:15:59.236Z,101317.72
2022-11-24T21:18:25.763Z,101316.00
2022-11-24T21:20:52.177Z,101321.28
2022-11-24T21:23:20.582Z,101327.75
2022-11-24T21:25:47.061Z,101326.06
2022-11-24T21:28:13.570Z,101338.63
2022-11-24T21:30:40.148Z,101335.06
2022-11-24T21:33:07.345Z,101336.94
2022-11-24T21:35:34.757Z,101336.09
2022-11-24T21:38:01.170Z,101324.34
2022-11-24T21:40:27.665Z,101338.97
2022-11-24T21:42:54.144Z,101331.66
2022-11-24T21:45:20.667Z,101340.69
2022-11-24T21:47:47.352Z,101339.84
2022-11-24T21:50:13.756Z,101350.72
2022-11-24T21:52:40.217Z,101348.97
2022-11-24T21:55:07.124Z,101349.84
2022-11-24T21:57:33.596Z,101353.56
2022-11-24T22:00:00.449Z,101354.59
2022-11-24T22:02:27.043Z,101350.84
2022-11-24T22:04:53.609Z,101360.03
2022-11-24T22:07:20.092Z,101354.59
2022-11-24T22:09:46.748Z,101363.78
2022-11-24T22:12:13.201Z,101369.22
2022-11-24T22:14:40.664Z,101381.13
2022-11-24T22:17:07.574Z,101379.25
2022-11-24T22:19:34.118Z,101378.41
2022-11-24T22:22:00.604Z,101366.66
2022-11-24T22:24:27.576Z,101368.53
2022-11-24T22:26:54.783Z,101379.41
2022-11-24T22:29:21.363Z,101380.44
2022-11-24T22:31:47.956Z,101374.97
2022-11-24T22:34:14.567Z,101372.25
2022-11-24T22:36:41.074Z,101378.72
2022-11-24T22:39:10.973Z,101377.72
2022-11-24T22:41:37.666Z,101377.72
2022-11-24T22:44:04.830Z,101384.00
2022-11-24T22:46:32.008Z,101385.00
2022-11-24T22:48:59.638Z,101382.28
2022-11-24T22:51:27.359Z,101381.44
2022-11-24T22:53:55.087Z,101381.44
2022-11-24T22:56:22.031Z,101391.47
2022-11-24T22:58:50.853Z,101387.03
2022-11-24T23:01:19.362Z,101396.06
2022-11-24T23:03:45.940Z,101393.50
2022-11-24T23:06:16.649Z,101391.47
2022-11-24T23:08:43.286Z,101389.25
2022-11-24T23:11:09.669Z,101383.97
2022-11-24T23:13:36.546Z,101394.84
2022-11-24T23:16:04.638Z,101390.44
2022-11-24T23:18:31.514Z,101386.13
2022-11-24T23:21:04.138Z,101382.91
2022-11-24T23:23:30.555Z,101385.09
2022-11-24T23:25:59.458Z,101378.81
2022-11-24T23:28:25.909Z,101369.06
2022-11-24T23:30:52.474Z,101375.72
2022-11-24T23:33:19.021Z,101382.34
2022-11-24T23:35:45.457Z,101385.22
2022-11-24T23:38:11.972Z,101382.66
2022-11-24T23:40:38.449Z,101391.00
2022-11-24T23:43:04.909Z,101384.00
2022-11-24T23:45:32.034Z,101390.47
2022-11-24T23:47:58.549Z,101391.50
2022-11-24T23:50:25.156Z,101392.66
2022-11-24T23:52:51.651Z,101381.97
2022-11-24T23:55:19.083Z,101385.53
2022-11-24T23:57:45.551Z,101386.69
